Time;durP1;ratioP1;P1;durP2;ratioP2;P2;SDS_P1;SDS_P2;PMS_P1;PMS_P2;Temp;Humidity;BMP_temperature;BMP_pressure;BME280_temperature;BME280_humidity;BME280_pressure;Samples;Min_cycle;Max_cycle;Signal;HPM_P1;HPM_P2
2024/01/02 00:00:23;;;;;;;2.83;1.17;;;;;;;7.77;62.12;99684.38;2506264;28;20051;-79
2024/01/02 00:01:39;;;;;;;3.55;1.10;;;;;;;7.78;62.08;99689.56;2509540;28;20089;-80
2024/01/02 00:02:52;;;;;;;7.40;1.70;;;;;;;7.77;62.13;99687.84;2504863;28;20051;-79
2024/01/02 00:04:06;;;;;;;3.13;1.33;;;;;;;7.77;62.47;99674.88;2504222;28;20051;-79
2024/01/02 00:05:20;;;;;;;1.55;1.00;;;;;;;7.78;62.31;99691.31;2511027;28;20050;-79
2024/01/02 00:06:34;;;;;;;1.95;1.08;;;;;;;7.77;61.77;99685.25;2507549;28;20060;-79
2024/01/02 00:07:48;;;;;;;1.45;1.10;;;;;;;7.79;62.06;99673.09;2513817;28;20578;-79
2024/01/02 00:09:02;;;;;;;3.40;1.15;;;;;;;7.80;62.11;99679.16;2506536;28;20053;-80
2024/01/02 00:10:16;;;;;;;3.17;2.45;;;;;;;7.80;62.29;99676.56;2503320;28;20539;-79
2024/01/02 00:11:30;;;;;;;3.33;1.10;;;;;;;7.80;62.18;99669.63;2504101;28;20125;-81
2024/01/02 00:12:43;;;;;;;0.98;0.93;;;;;;;7.81;62.54;99673.94;2509194;28;20068;-81
2024/01/02 00:13:58;;;;;;;2.38;0.70;;;;;;;7.82;62.41;99662.69;2514092;28;20041;-80
2024/01/02 00:15:14;;;;;;;2.97;1.40;;;;;;;7.80;62.36;99667.03;2505791;28;20054;-81
2024/01/02 00:16:28;;;;;;;0.98;0.90;;;;;;;7.80;61.97;99656.66;2511866;28;20088;-81
2024/01/02 00:17:43;;;;;;;7.30;1.35;;;;;;;7.82;62.15;99654.00;2503621;28;20049;-81
2024/01/02 00:18:58;;;;;;;4.00;1.08;;;;;;;7.82;62.09;99647.09;2505007;28;20046;-80
2024/01/02 00:20:13;;;;;;;3.30;0.82;;;;;;;7.82;61.87;99639.31;2504663;28;20055;-81
2024/01/02 00:21:27;;;;;;;4.88;1.10;;;;;;;7.83;61.93;99647.97;2504097;28;20050;-81
2024/01/02 00:22:41;;;;;;;2.83;1.10;;;;;;;7.84;61.89;99647.06;2509189;28;20046;-80
2024/01/02 00:23:57;;;;;;;1.23;1.13;;;;;;;7.85;61.97;99638.41;2508025;28;20404;-80
2024/01/02 00:25:10;;;;;;;5.47;1.85;;;;;;;7.85;61.82;99639.25;2504430;28;20137;-80
2024/01/02 00:26:24;;;;;;;1.80;1.20;;;;;;;7.85;62.06;99631.47;2503863;28;20050;-79
2024/01/02 00:27:38;;;;;;;1.73;1.08;;;;;;;7.86;62.11;99629.72;2507565;28;20459;-79
2024/01/02 00:28:53;;;;;;;1.58;1.45;;;;;;;7.84;62.28;99621.94;2508043;28;20042;-79
2024/01/02 00:30:07;;;;;;;3.70;2.40;;;;;;;7.84;62.08;99621.94;2503959;28;20049;-79
2024/01/02 00:31:21;;;;;;;1.42;0.70;;;;;;;7.84;62.06;99616.75;2504571;28;20061;-79
2024/01/02 00:32:35;;;;;;;0.77;0.75;;;;;;;7.85;62.22;99618.47;2508043;28;20050;-80
2024/01/02 00:33:51;;;;;;;2.70;0.98;;;;;;;7.85;62.35;99615.88;2508517;28;20058;-80
2024/01/02 00:35:06;;;;;;;4.10;0.90;;;;;;;7.85;62.36;99607.25;2503453;28;20048;-82
2024/01/02 00:36:20;;;;;;;1.55;0.90;;;;;;;7.85;62.26;99610.69;2503629;28;20047;-79
2024/01/02 00:37:33;;;;;;;2.20;1.17;;;;;;;7.85;62.33;99602.91;2506777;28;20407;-79
2024/01/02 00:38:48;;;;;;;1.45;0.85;;;;;;;7.85;62.22;99594.25;2509059;28;20046;-79
2024/01/02 00:40:02;;;;;;;1.52;1.02;;;;;;;7.86;62.45;99594.22;2503776;28;20061;-79
2024/01/02 00:41:16;;;;;;;2.40;1.05;;;;;;;7.88;62.22;99598.53;2504376;28;20454;-79
2024/01/02 00:42:30;;;;;;;2.65;1.00;;;;;;;7.88;62.04;99594.19;2504323;28;20047;-78
2024/01/02 00:43:45;;;;;;;1.55;0.60;;;;;;;7.89;62.20;99593.31;2504786;28;20055;-79
2024/01/02 00:44:59;;;;;;;1.05;0.70;;;;;;;7.89;62.29;99590.72;2510319;28;20066;-80
2024/01/02 00:46:13;;;;;;;2.78;0.75;;;;;;;7.90;62.03;99582.06;2505714;28;20047;-80
2024/01/02 00:47:27;;;;;;;2.17;1.05;;;;;;;7.92;61.71;99584.59;2504900;28;20101;-80
2024/01/02 00:48:41;;;;;;;2.28;1.17;;;;;;;7.94;61.73;99585.44;2504703;28;20189;-80
2024/01/02 00:49:56;;;;;;;0.50;0.50;;;;;;;7.94;61.70;99582.84;2504383;28;20054;-80
2024/01/02 00:51:14;;;;;;;1.48;1.38;;;;;;;7.96;61.65;99576.75;2504575;28;20089;-79
2024/01/02 00:52:29;;;;;;;3.33;0.68;;;;;;;7.98;61.33;99576.75;2497941;28;20051;-80
2024/01/02 00:53:47;;;;;;;1.30;0.98;;;;;;;7.99;61.77;99573.25;2503017;28;20066;-79
2024/01/02 00:55:10;;;;;;;4.00;1.10;;;;;;;8.00;61.44;99570.63;2506487;28;20043;-80
2024/01/02 00:56:26;;;;;;;0.55;0.52;;;;;;;8.00;61.42;99564.56;2498525;28;20051;-82
2024/01/02 00:57:42;;;;;;;3.60;0.93;;;;;;;8.00;61.60;99575.84;2497277;28;20047;-80
2024/01/02 00:58:59;;;;;;;1.58;0.70;;;;;;;8.01;61.71;99558.50;2506138;28;20070;-80
2024/01/02 01:00:21;;;;;;;7.47;1.52;;;;;;;8.03;61.60;99559.34;2505975;28;20558;-80
2024/01/02 01:01:38;;;;;;;2.10;0.90;;;;;;;8.03;61.59;99565.38;2506699;28;20447;-80
2024/01/02 01:02:57;;;;;;;0.80;0.73;;;;;;;8.03;61.45;99557.59;2506969;28;20078;-81
2024/01/02 01:04:17;;;;;;;1.52;1.13;;;;;;;8.05;61.67;99547.16;2507754;28;20047;-81
2024/01/02 01:05:33;;;;;;;2.38;0.60;;;;;;;8.05;61.58;99545.44;2453851;28;1344350;-80
2024/01/02 01:06:52;;;;;;;1.90;0.70;;;;;;;8.06;61.50;99547.16;2512092;28;20495;-81
2024/01/02 01:08:06;;;;;;;1.52;0.65;;;;;;;8.07;61.60;99537.59;2510277;28;20039;-81
2024/01/02 01:09:23;;;;;;;1.55;0.70;;;;;;;8.06;61.54;99533.31;2501463;28;20059;-79
2024/01/02 01:10:43;;;;;;;2.40;0.70;;;;;;;8.07;61.34;99535.00;2508320;28;20050;-80
2024/01/02 01:11:58;;;;;;;1.17;0.75;;;;;;;8.07;61.26;99530.66;2507816;28;20051;-79
2024/01/02 01:13:18;;;;;;;0.80;0.60;;;;;;;8.09;61.62;99528.06;2504149;28;20125;-80
2024/01/02 01:14:33;;;;;;;4.75;0.88;;;;;;;8.11;61.48;99533.22;2507116;28;20050;-79
2024/01/02 01:15:49;;;;;;;1.23;0.73;;;;;;;8.09;61.90;99533.25;2515233;28;20046;-79
2024/01/02 01:17:04;;;;;;;5.63;0.90;;;;;;;8.09;61.61;99526.31;2515118;28;20491;-78
2024/01/02 01:18:25;;;;;;;3.15;1.05;;;;;;;8.11;61.36;99528.03;2514236;28;20052;-79
2024/01/02 01:19:46;;;;;;;0.60;0.60;;;;;;;8.11;61.70;99528.03;2517351;28;20065;-81
2024/01/02 01:21:05;;;;;;;1.30;0.88;;;;;;;8.08;62.03;99523.75;2518621;28;20184;-82
2024/01/02 01:22:21;;;;;;;0.77;0.77;;;;;;;8.06;62.02;99521.16;2518942;28;20046;-82
2024/01/02 01:23:53;;;;;;;4.47;0.85;;;;;;;8.09;61.95;99522.84;2518083;28;20054;-81
2024/01/02 01:25:12;;;;;;;1.13;0.75;;;;;;;8.07;62.33;99516.81;2517675;28;20047;-81
2024/01/02 01:26:27;;;;;;;1.52;0.85;;;;;;;8.04;62.71;99525.50;2516496;28;20517;-80
2024/01/02 01:27:42;;;;;;;1.10;0.73;;;;;;;8.02;63.05;99518.63;2516147;28;20057;-81
2024/01/02 01:28:57;;;;;;;0.73;0.73;;;;;;;7.99;63.39;99521.28;2514545;28;20050;-81
2024/01/02 01:30:21;;;;;;;1.20;0.98;;;;;;;7.96;63.79;99510.94;2516061;28;20062;-81
2024/01/02 01:31:37;;;;;;;0.55;0.52;;;;;;;7.92;64.10;99512.72;2518070;28;20057;-81
2024/01/02 01:32:54;;;;;;;2.05;0.63;;;;;;;7.89;64.22;99515.38;2515373;28;20046;-79
2024/01/02 01:34:11;;;;;;;1.40;0.80;;;;;;;7.85;64.58;99506.78;2514403;28;20077;-79
2024/01/02 01:35:25;;;;;;;0.63;0.63;;;;;;;7.82;65.00;99512.03;2515156;28;20046;-79
2024/01/02 01:36:46;;;;;;;0.80;0.70;;;;;;;7.80;65.23;99512.94;2514993;28;20069;-78
2024/01/02 01:38:04;;;;;;;0.98;0.70;;;;;;;7.78;65.45;99507.75;2505403;28;20046;-79
2024/01/02 01:39:24;;;;;;;1.25;0.50;;;;;;;7.75;65.43;99502.63;2514846;28;20057;-79
2024/01/02 01:40:38;;;;;;;2.28;1.08;;;;;;;7.72;65.76;99505.25;2515327;28;20050;-79
2024/01/02 01:42:02;;;;;;;2.25;0.98;;;;;;;7.70;65.79;99501.81;2509097;28;20046;-78
2024/01/02 01:43:21;;;;;;;1.55;0.80;;;;;;;7.69;66.01;99502.69;2514763;28;20126;-80
2024/01/02 01:44:48;;;;;;;2.00;0.80;;;;;;;7.66;66.09;99500.13;2515375;28;20039;-80
2024/01/02 01:46:03;;;;;;;1.75;1.65;;;;;;;7.63;66.07;99503.63;2514419;28;20038;-80
2024/01/02 01:47:19;;;;;;;0.47;0.47;;;;;;;7.62;66.24;99496.75;2515669;28;20051;-80
2024/01/02 01:48:36;;;;;;;2.10;0.80;;;;;;;7.62;66.39;99501.09;2515783;28;20050;-80
2024/01/02 01:49:51;;;;;;;1.58;0.70;;;;;;;7.60;66.84;99495.91;2513402;28;20096;-80
2024/01/02 01:51:11;;;;;;;0.70;0.60;;;;;;;7.60;66.61;99493.31;2515481;28;20093;-80
2024/01/02 01:52:32;;;;;;;1.17;0.82;;;;;;;7.60;66.89;99487.25;2514360;28;20109;-80
2024/01/02 01:54:08;;;;;;;1.77;0.60;;;;;;;7.58;67.02;99495.06;2515536;28;20146;-81
2024/01/02 01:55:24;;;;;;;0.90;0.60;;;;;;;7.54;67.05;99495.16;2517284;28;20175;-81
2024/01/02 01:56:39;;;;;;;1.77;0.57;;;;;;;7.52;67.56;99484.78;2517680;28;20056;-81
2024/01/02 01:57:54;;;;;;;0.73;0.57;;;;;;;7.51;67.65;99477.00;2517209;28;20134;-81
2024/01/02 01:59:15;;;;;;;0.68;0.65;;;;;;;7.51;67.88;99467.50;2517487;28;20050;-81
2024/01/02 02:00:38;;;;;;;1.75;0.60;;;;;;;7.49;67.99;99473.59;2509306;28;20540;-81
2024/01/02 02:01:58;;;;;;;1.73;0.73;;;;;;;7.47;68.30;99465.81;2516618;28;20495;-82
2024/01/02 02:03:16;;;;;;;1.23;0.70;;;;;;;7.46;68.11;99463.22;2517080;28;20096;-82
2024/01/02 02:04:35;;;;;;;1.17;1.13;;;;;;;7.43;68.14;99458.94;2509437;28;20073;-82
2024/01/02 02:05:50;;;;;;;1.38;0.60;;;;;;;7.41;68.47;99461.59;2515851;28;20580;-81
2024/01/02 02:07:04;;;;;;;1.15;0.70;;;;;;;7.40;68.65;99459.00;2515445;28;20053;-82
2024/01/02 02:08:20;;;;;;;1.42;0.70;;;;;;;7.39;68.77;99458.16;2515394;28;20470;-82
2024/01/02 02:09:33;;;;;;;3.42;1.00;;;;;;;7.38;68.71;99453.84;2514601;28;20050;-82
2024/01/02 02:10:49;;;;;;;0.70;0.70;;;;;;;7.37;68.97;99454.72;2516619;28;20054;-81
2024/01/02 02:12:06;;;;;;;1.75;0.60;;;;;;;7.37;69.19;99453.84;2517739;28;20046;-81
2024/01/02 02:13:22;;;;;;;1.80;0.80;;;;;;;7.36;69.55;99455.59;2516541;28;20050;-81
2024/01/02 02:14:41;;;;;;;2.65;0.90;;;;;;;7.33;69.36;99459.97;2514177;28;20050;-82
2024/01/02 02:15:59;;;;;;;1.23;0.95;;;;;;;7.33;69.72;99452.19;2516348;28;20066;-81
2024/01/02 02:17:17;;;;;;;1.27;0.63;;;;;;;7.31;69.77;99461.75;2516853;28;20142;-83
2024/01/02 02:18:32;;;;;;;1.13;0.70;;;;;;;7.27;69.79;99453.13;2508747;28;20427;-82
2024/01/02 02:19:46;;;;;;;3.25;0.63;;;;;;;7.25;70.06;99449.69;2516006;28;20104;-81
2024/01/02 02:21:01;;;;;;;1.38;0.85;;;;;;;7.21;70.30;99448.88;2516997;28;20570;-81
2024/01/02 02:22:17;;;;;;;0.80;0.50;;;;;;;7.19;70.34;99442.00;2515752;28;20074;-81
2024/01/02 02:23:33;;;;;;;1.77;0.80;;;;;;;7.18;70.73;99437.72;2516132;28;20399;-82
2024/01/02 02:24:48;;;;;;;0.50;0.50;;;;;;;7.15;70.67;99443.78;2517297;28;20050;-80
2024/01/02 02:26:05;;;;;;;1.60;0.73;;;;;;;7.10;71.12;99435.22;2517907;28;20042;-81
2024/01/02 02:27:19;;;;;;;1.83;0.82;;;;;;;7.06;71.17;99433.53;2517172;28;20058;-81
2024/01/02 02:28:33;;;;;;;1.10;0.70;;;;;;;7.03;71.59;99427.53;2517150;28;20564;-81
2024/01/02 02:29:47;;;;;;;3.05;1.00;;;;;;;6.98;71.64;99430.19;2512947;28;20038;-82
2024/01/02 02:31:01;;;;;;;2.38;0.70;;;;;;;6.95;72.09;99425.91;2507443;28;20134;-82
2024/01/02 02:32:15;;;;;;;3.30;0.60;;;;;;;6.91;72.38;99425.97;2514904;28;20046;-82
2024/01/02 02:33:30;;;;;;;5.30;0.73;;;;;;;6.88;72.41;99416.47;2507264;28;20423;-82
2024/01/02 02:34:43;;;;;;;2.75;1.52;;;;;;;6.85;72.67;99419.13;2520335;28;20080;-82
2024/01/02 02:35:57;;;;;;;0.60;0.60;;;;;;;6.83;73.02;99414.84;2527843;28;20056;-81
2024/01/02 02:37:11;;;;;;;1.23;0.50;;;;;;;6.80;73.52;99418.31;2526205;28;20107;-82
2024/01/02 02:38:26;;;;;;;2.15;0.70;;;;;;;6.78;73.29;99412.28;2516468;28;20043;-81
2024/01/02 02:39:40;;;;;;;1.30;0.68;;;;;;;6.74;73.80;99414.09;2516545;28;20054;-82
2024/01/02 02:40:55;;;;;;;1.38;0.70;;;;;;;6.73;73.92;99417.53;2521946;28;20081;-82
2024/01/02 02:42:09;;;;;;;1.60;0.95;;;;;;;6.70;73.99;99412.38;2519411;28;20491;-82
2024/01/02 02:43:23;;;;;;;0.98;0.80;;;;;;;6.68;74.46;99403.78;2516544;28;20129;-82
2024/01/02 02:44:37;;;;;;;1.38;0.70;;;;;;;6.66;74.58;99399.47;2515925;28;20419;-80
2024/01/02 02:45:54;;;;;;;0.70;0.60;;;;;;;6.66;74.64;99409.84;2512070;28;20079;-80
2024/01/02 02:47:07;;;;;;;0.90;0.80;;;;;;;6.63;75.00;99399.53;2506778;28;20051;-82
2024/01/02 02:48:21;;;;;;;2.33;1.23;;;;;;;6.60;74.92;99402.16;2506401;28;20068;-81
2024/01/02 02:49:35;;;;;;;1.83;1.15;;;;;;;6.59;75.19;99398.72;2509625;28;20053;-83
2024/01/02 02:50:53;;;;;;;5.88;0.98;;;;;;;6.57;75.59;99392.69;2517255;28;20097;-82
2024/01/02 02:52:07;;;;;;;0.65;0.63;;;;;;;6.55;75.65;99395.28;2517075;28;20046;-82
2024/01/02 02:53:21;;;;;;;3.08;0.70;;;;;;;6.54;75.66;99392.72;2523102;28;20085;-79
2024/01/02 02:54:35;;;;;;;6.80;1.95;;;;;;;6.52;75.83;99387.56;2515428;28;20430;-80
2024/01/02 02:55:50;;;;;;;1.13;0.70;;;;;;;6.52;76.19;99384.13;2515636;28;20051;-80
2024/01/02 02:57:05;;;;;;;3.05;0.85;;;;;;;6.49;76.30;99382.41;2522163;28;20053;-79
2024/01/02 02:58:20;;;;;;;2.70;0.80;;;;;;;6.48;76.11;99380.72;2517912;28;20499;-79
2024/01/02 02:59:33;;;;;;;2.72;0.60;;;;;;;6.47;76.40;99383.31;2515170;28;20050;-80
2024/01/02 03:00:48;;;;;;;1.45;0.75;;;;;;;6.47;76.56;99370.34;2516613;28;20052;-79
2024/01/02 03:02:02;;;;;;;1.80;0.80;;;;;;;6.45;76.72;99370.34;2515800;28;20046;-80
2024/01/02 03:03:17;;;;;;;1.85;0.70;;;;;;;6.45;76.81;99364.31;2515486;28;20076;-80
2024/01/02 03:04:30;;;;;;;1.45;0.70;;;;;;;6.44;76.89;99363.47;2515573;28;20062;-80
2024/01/02 03:05:45;;;;;;;1.85;1.00;;;;;;;6.42;77.23;99362.63;2513165;28;20050;-80
2024/01/02 03:06:59;;;;;;;0.52;0.45;;;;;;;6.43;77.31;99360.88;2511585;28;20050;-80
2024/01/02 03:08:13;;;;;;;1.52;0.80;;;;;;;6.42;77.66;99344.50;2508669;28;20192;-80
2024/01/02 03:09:26;;;;;;;2.42;0.85;;;;;;;6.42;77.71;99336.72;2505924;28;20054;-81
2024/01/02 03:10:41;;;;;;;2.97;0.70;;;;;;;6.42;77.53;99344.50;2515880;28;20409;-81
2024/01/02 03:11:56;;;;;;;1.10;1.10;;;;;;;6.40;77.67;99343.69;2515677;28;20058;-80
2024/01/02 03:13:10;;;;;;;4.15;1.77;;;;;;;6.40;78.06;99342.78;2515654;28;20091;-79
2024/01/02 03:14:23;;;;;;;3.22;1.50;;;;;;;6.37;78.11;99330.72;2514782;28;20400;-80
2024/01/02 03:15:41;;;;;;;2.65;0.85;;;;;;;6.34;78.22;99336.81;2516321;28;20056;-80
2024/01/02 03:16:57;;;;;;;1.15;1.05;;;;;;;6.32;78.23;99332.53;2518172;28;20102;-79
2024/01/02 03:18:12;;;;;;;0.70;0.60;;;;;;;6.30;78.58;99331.72;2510524;28;20051;-80
2024/01/02 03:19:25;;;;;;;2.30;1.00;;;;;;;6.28;78.49;99328.28;2508832;28;20051;-80
2024/01/02 03:20:40;;;;;;;2.25;0.90;;;;;;;6.26;78.64;99327.44;2510595;28;20122;-79
2024/01/02 03:21:53;;;;;;;2.03;0.80;;;;;;;6.25;78.99;99318.81;2514022;28;20050;-79
2024/01/02 03:23:08;;;;;;;1.58;0.80;;;;;;;6.23;79.43;99320.56;2518891;28;20046;-79
2024/01/02 03:24:21;;;;;;;1.63;1.00;;;;;;;6.22;79.26;99317.97;2516833;28;20054;-80
2024/01/02 03:25:36;;;;;;;2.03;0.80;;;;;;;6.21;79.31;99311.94;2514362;28;20131;-81
2024/01/02 03:26:49;;;;;;;1.40;0.93;;;;;;;6.20;79.54;99299.03;2515217;28;20507;-81
2024/01/02 03:28:06;;;;;;;1.08;1.02;;;;;;;6.19;79.68;99308.50;2515133;28;20052;-80
2024/01/02 03:29:19;;;;;;;2.60;0.70;;;;;;;6.18;79.62;99303.34;2514264;28;20138;-81
2024/01/02 03:30:34;;;;;;;1.58;0.98;;;;;;;6.16;79.79;99294.75;2506576;28;20043;-82
2024/01/02 03:31:47;;;;;;;2.15;0.80;;;;;;;6.14;79.98;99286.97;2515518;28;20046;-82
2024/01/02 03:33:01;;;;;;;1.98;0.73;;;;;;;6.14;80.13;99293.91;2520218;28;20050;-81
2024/01/02 03:34:15;;;;;;;0.98;0.57;;;;;;;6.11;79.99;99287.00;2515630;28;20050;-81
2024/01/02 03:35:29;;;;;;;0.63;0.52;;;;;;;6.09;80.29;99274.09;2513121;28;20046;-80
2024/01/02 03:36:43;;;;;;;0.57;0.57;;;;;;;6.08;80.38;99272.38;2513553;28;20407;-80
2024/01/02 03:37:57;;;;;;;2.47;0.98;;;;;;;6.08;80.65;99277.56;2512981;28;20042;-81
2024/01/02 03:39:11;;;;;;;1.48;1.38;;;;;;;6.06;80.45;99268.94;2506713;28;20050;-82
2024/01/02 03:40:25;;;;;;;0.82;0.82;;;;;;;6.07;80.60;99272.41;2504012;28;20551;-81
2024/01/02 03:41:39;;;;;;;0.63;0.50;;;;;;;6.05;80.71;99262.06;2506498;28;20049;-81
2024/01/02 03:42:53;;;;;;;1.73;1.05;;;;;;;6.06;80.81;99265.50;2513720;28;20466;-81
2024/01/02 03:44:08;;;;;;;1.73;0.80;;;;;;;6.08;81.04;99268.94;2529418;28;20022;-82
2024/01/02 03:45:22;;;;;;;2.15;0.60;;;;;;;6.07;80.92;99262.06;2526579;28;20030;-82
2024/01/02 03:46:36;;;;;;;0.60;0.60;;;;;;;6.06;81.14;99258.56;2521637;28;20054;-81
2024/01/02 03:47:50;;;;;;;2.17;0.60;;;;;;;6.07;81.20;99255.13;2517597;28;20097;-81
2024/01/02 03:49:04;;;;;;;1.55;0.77;;;;;;;6.07;81.12;99251.69;2516167;28;20050;-80
2024/01/02 03:50:20;;;;;;;2.85;0.70;;;;;;;6.07;81.33;99247.38;2507505;28;20057;-81
2024/01/02 03:52:03;;;;;;;3.78;0.85;;;;;;;6.08;81.56;99238.69;2507578;28;20066;-81
2024/01/02 03:53:18;;;;;;;2.88;0.80;;;;;;;6.06;81.35;99219.72;2506633;28;20047;-81
2024/01/02 03:54:32;;;;;;;2.55;0.60;;;;;;;6.08;81.76;99237.84;2517056;28;20042;-81
2024/01/02 03:55:46;;;;;;;2.88;0.73;;;;;;;6.07;81.77;99231.81;2521109;28;20129;-82
2024/01/02 03:56:59;;;;;;;5.88;1.45;;;;;;;6.09;81.60;99231.78;2515364;28;20050;-81
2024/01/02 03:58:14;;;;;;;1.95;1.05;;;;;;;6.08;81.59;99233.53;2514918;28;20054;-81
2024/01/02 03:59:29;;;;;;;1.80;0.73;;;;;;;6.07;81.57;99231.81;2506356;28;20058;-81
2024/01/02 04:00:43;;;;;;;1.15;0.65;;;;;;;6.08;81.81;99224.91;2505581;28;20065;-82
2024/01/02 04:01:57;;;;;;;1.20;0.88;;;;;;;6.08;81.96;99232.66;2509487;28;20731;-82
2024/01/02 04:03:11;;;;;;;0.40;0.40;;;;;;;6.08;81.93;99223.16;2514608;28;20061;-82
2024/01/02 04:04:25;;;;;;;0.65;0.60;;;;;;;6.08;82.06;99224.91;2514686;28;20531;-83
2024/01/02 04:05:39;;;;;;;1.15;0.80;;;;;;;6.08;82.01;99214.53;2514406;28;20053;-83
2024/01/02 04:06:52;;;;;;;0.45;0.45;;;;;;;6.07;82.23;99218.88;2514414;28;20065;-83
2024/01/02 04:08:07;;;;;;;2.30;0.98;;;;;;;6.08;82.58;99228.34;2514582;28;20042;-83
2024/01/02 04:09:20;;;;;;;0.65;0.40;;;;;;;6.07;82.30;99211.09;2513314;28;20073;-83
2024/01/02 04:10:36;;;;;;;1.30;0.65;;;;;;;6.09;82.34;99213.66;2515070;28;20053;-82
2024/01/02 04:11:50;;;;;;;0.90;0.68;;;;;;;6.10;82.51;99207.63;2515933;28;20134;-82
2024/01/02 04:13:04;;;;;;;0.85;0.50;;;;;;;6.09;82.60;99209.34;2508811;28;20042;-83
2024/01/02 04:14:18;;;;;;;1.90;0.50;;;;;;;6.11;82.75;99196.38;2512012;28;20053;-83
2024/01/02 04:15:34;;;;;;;1.45;0.60;;;;;;;6.10;82.73;99199.84;2514565;28;20056;-83
2024/01/02 04:16:47;;;;;;;1.77;0.70;;;;;;;6.13;82.48;99193.75;2514483;28;20105;-83
2024/01/02 04:18:02;;;;;;;5.32;0.70;;;;;;;6.15;82.84;99187.69;2516973;28;20038;-84
2024/01/02 04:19:17;;;;;;;0.65;0.60;;;;;;;6.15;82.69;99181.66;2515524;28;20483;-83
2024/01/02 04:20:31;;;;;;;3.33;0.60;;;;;;;6.16;82.86;99180.75;2516890;28;20062;-84
2024/01/02 04:21:45;;;;;;;1.45;0.40;;;;;;;6.16;82.78;99176.44;2521206;28;20050;-83
2024/01/02 04:22:59;;;;;;;0.43;0.40;;;;;;;6.18;82.74;99173.84;2510024;28;20046;-83
2024/01/02 04:24:14;;;;;;;2.72;2.30;;;;;;;6.18;82.87;99173.84;2504313;28;20057;-83
2024/01/02 04:25:29;;;;;;;0.63;0.63;;;;;;;6.21;82.95;99166.00;2504634;28;20049;-83
2024/01/02 04:26:45;;;;;;;1.17;0.98;;;;;;;6.20;82.74;99170.34;2515567;28;20114;-83
2024/01/02 04:28:00;;;;;;;5.00;0.47;;;;;;;6.22;82.87;99166.00;2518350;28;20054;-83
2024/01/02 04:29:13;;;;;;;1.90;0.47;;;;;;;6.23;82.89;99172.03;2521017;28;20050;-83
2024/01/02 04:30:28;;;;;;;0.32;0.28;;;;;;;6.24;83.04;99155.59;2506452;28;20055;-85
2024/01/02 04:31:42;;;;;;;2.60;2.30;;;;;;;6.25;82.90;99144.38;2513728;28;20058;-83
2024/01/02 04:32:57;;;;;;;0.43;0.43;;;;;;;6.26;82.79;99143.47;2509059;28;20504;-82
2024/01/02 04:34:10;;;;;;;1.45;0.65;;;;;;;6.26;82.98;99135.72;2509778;28;20046;-82
2024/01/02 04:35:25;;;;;;;0.50;0.40;;;;;;;6.26;83.14;99133.97;2521887;28;20513;-82
2024/01/02 04:36:41;;;;;;;0.77;0.75;;;;;;;6.27;83.05;99124.47;2514337;28;20057;-83
2024/01/02 04:37:54;;;;;;;5.85;1.40;;;;;;;6.28;83.01;99131.38;2512927;28;20412;-82
2024/01/02 04:39:09;;;;;;;0.70;0.50;;;;;;;6.30;83.19;99129.63;2508543;28;20129;-82
2024/01/02 04:40:22;;;;;;;2.55;0.60;;;;;;;6.32;83.02;99127.84;2504198;28;20419;-82
2024/01/02 04:41:37;;;;;;;0.60;0.55;;;;;;;6.30;83.04;99109.75;2516064;28;20049;-82
2024/01/02 04:42:50;;;;;;;0.40;0.40;;;;;;;6.31;83.06;99119.22;2520503;28;20077;-82
2024/01/02 04:44:05;;;;;;;1.05;0.50;;;;;;;6.31;83.15;99111.44;2514126;28;20042;-82
2024/01/02 04:45:18;;;;;;;0.82;0.82;;;;;;;6.32;83.00;99117.47;2514046;28;20054;-81
2024/01/02 04:46:33;;;;;;;1.05;0.75;;;;;;;6.33;83.05;99119.19;2514172;28;20047;-81
2024/01/02 04:47:47;;;;;;;0.60;0.60;;;;;;;6.32;82.82;99101.91;2523185;28;20502;-82
2024/01/02 04:49:02;;;;;;;0.40;0.40;;;;;;;6.32;83.07;99107.09;2524132;28;20057;-82
2024/01/02 04:50:15;;;;;;;0.47;0.47;;;;;;;6.33;83.05;99108.84;2508880;28;20053;-81
2024/01/02 04:51:30;;;;;;;0.80;0.60;;;;;;;6.34;83.10;99103.59;2503918;28;20102;-82
2024/01/02 04:52:43;;;;;;;0.60;0.60;;;;;;;6.34;83.12;99100.16;2504491;28;20057;-81
2024/01/02 04:53:58;;;;;;;0.30;0.30;;;;;;;6.35;82.94;99096.72;2508929;28;20046;-82
2024/01/02 04:55:11;;;;;;;0.40;0.40;;;;;;;6.34;83.12;99097.56;2513729;28;20054;-81
2024/01/02 04:56:26;;;;;;;0.60;0.47;;;;;;;6.35;82.95;99096.72;2513987;28;20149;-82
2024/01/02 04:57:39;;;;;;;0.60;0.52;;;;;;;6.35;82.98;99096.72;2511342;28;20061;-82
2024/01/02 04:58:53;;;;;;;0.30;0.30;;;;;;;6.37;83.00;99086.31;2504363;28;20504;-82
2024/01/02 05:00:11;;;;;;;2.63;0.50;;;;;;;6.37;82.82;99084.56;2512844;28;20050;-83
2024/01/02 05:01:26;;;;;;;1.05;0.50;;;;;;;6.40;82.83;99081.94;2518053;28;20521;-84
2024/01/02 05:02:40;;;;;;;0.60;0.60;;;;;;;6.40;82.72;99070.69;2518154;28;20109;-83
2024/01/02 05:03:56;;;;;;;0.50;0.40;;;;;;;6.42;82.59;99071.53;2517460;28;20050;-82
2024/01/02 05:05:10;;;;;;;0.40;0.40;;;;;;;6.43;82.47;99070.63;2513643;28;20532;-83
2024/01/02 05:06:24;;;;;;;0.65;0.38;;;;;;;6.41;82.61;99070.69;2507444;28;20146;-82
2024/01/02 05:07:38;;;;;;;0.65;0.63;;;;;;;6.43;82.44;99055.97;2509898;23;20057;-81
2024/01/02 05:08:52;;;;;;;0.47;0.45;;;;;;;6.43;82.40;99060.28;2517867;28;20054;-85
2024/01/02 05:10:06;;;;;;;1.85;1.00;;;;;;;6.43;82.34;99079.28;2517331;28;20057;-84
2024/01/02 05:11:21;;;;;;;0.40;0.40;;;;;;;6.44;82.43;99056.81;2507264;28;20046;-84
2024/01/02 05:12:34;;;;;;;0.30;0.30;;;;;;;6.41;82.40;99055.13;2506901;28;20054;-85
2024/01/02 05:13:49;;;;;;;0.95;0.50;;;;;;;6.41;82.52;99044.78;2515416;28;20038;-83
2024/01/02 05:15:03;;;;;;;1.17;0.60;;;;;;;6.41;82.34;99043.94;2516321;28;20046;-83
2024/01/02 05:16:17;;;;;;;0.45;0.35;;;;;;;6.41;82.07;99059.47;2515674;28;20042;-83
2024/01/02 05:17:30;;;;;;;0.50;0.50;;;;;;;6.38;82.17;99052.59;2516973;28;20050;-83
2024/01/02 05:18:45;;;;;;;0.45;0.40;;;;;;;6.40;82.28;99068.09;2525617;28;20072;-86
2024/01/02 05:20:00;;;;;;;0.20;0.20;;;;;;;6.38;82.04;99044.84;2525256;28;20062;-84
2024/01/02 05:21:14;;;;;;;0.30;0.30;;;;;;;6.38;82.03;99050.00;2525521;28;20046;-84
2024/01/02 05:22:27;;;;;;;0.50;0.50;;;;;;;6.37;82.05;99043.09;2525115;28;20068;-86
2024/01/02 05:23:42;;;;;;;0.73;0.45;;;;;;;6.37;81.94;99040.50;2525650;28;20056;-84
2024/01/02 05:24:55;;;;;;;1.15;0.50;;;;;;;6.37;82.19;99037.06;2526119;28;20418;-85
2024/01/02 05:26:10;;;;;;;0.32;0.32;;;;;;;6.37;82.21;99047.44;2524781;28;20049;-83
2024/01/02 05:27:23;;;;;;;0.55;0.55;;;;;;;6.36;82.18;99038.81;2526151;28;20460;-84
2024/01/02 05:28:38;;;;;;;0.52;0.52;;;;;;;6.37;82.35;99043.09;2525206;28;20134;-84
2024/01/02 05:29:51;;;;;;;0.50;0.50;;;;;;;6.39;82.22;99030.13;2525593;28;20042;-85
2024/01/02 05:31:06;;;;;;;1.55;0.77;;;;;;;6.40;82.08;99029.25;2525743;28;20044;-84
2024/01/02 05:32:19;;;;;;;0.70;0.40;;;;;;;6.41;82.19;99036.16;2532845;28;20050;-84
2024/01/02 05:33:33;;;;;;;0.55;0.55;;;;;;;6.42;82.23;99030.06;2526374;28;20149;-83
2024/01/02 05:34:47;;;;;;;0.93;0.60;;;;;;;6.45;81.99;99035.19;2524095;28;20054;-84
2024/01/02 05:36:03;;;;;;;0.35;0.35;;;;;;;6.46;82.02;99011.88;2524800;28;20120;-84
2024/01/02 05:37:18;;;;;;;0.52;0.50;;;;;;;6.50;82.03;99004.88;2524900;28;20419;-83
2024/01/02 05:38:32;;;;;;;0.40;0.40;;;;;;;6.49;81.87;99014.38;2524930;28;20048;-85
2024/01/02 05:39:46;;;;;;;1.00;0.50;;;;;;;6.48;82.13;99002.31;2525272;28;20399;-84
2024/01/02 05:41:00;;;;;;;0.20;0.20;;;;;;;6.48;81.99;99001.44;2525890;28;20052;-85
2024/01/02 05:42:14;;;;;;;2.53;0.40;;;;;;;6.47;81.90;99002.34;2524815;28;20053;-85
2024/01/02 05:43:28;;;;;;;0.40;0.40;;;;;;;6.48;82.00;98978.13;2526215;28;20105;-83
2024/01/02 05:44:42;;;;;;;0.20;0.20;;;;;;;6.47;82.32;98987.63;2525785;28;20057;-83
2024/01/02 05:45:56;;;;;;;0.68;0.57;;;;;;;6.47;82.20;98974.69;2525428;28;20040;-85
2024/01/02 05:47:09;;;;;;;0.57;0.50;;;;;;;6.45;82.16;98963.50;2526699;28;20066;-83
2024/01/02 05:48:24;;;;;;;1.88;0.85;;;;;;;6.48;82.22;98978.13;2526589;28;20110;-84
2024/01/02 05:49:37;;;;;;;0.75;0.30;;;;;;;6.49;82.23;98965.16;2525082;28;20054;-85
2024/01/02 05:50:52;;;;;;;0.50;0.50;;;;;;;6.49;82.16;98978.09;2526504;28;20068;-83
2024/01/02 05:52:06;;;;;;;0.40;0.40;;;;;;;6.48;82.27;98973.81;2526566;28;20050;-83
2024/01/02 05:53:21;;;;;;;1.45;0.55;;;;;;;6.48;82.35;98960.88;2525296;28;20042;-84
2024/01/02 05:54:34;;;;;;;1.45;0.90;;;;;;;6.49;82.35;98959.13;2526270;28;20054;-85
2024/01/02 05:55:49;;;;;;;0.38;0.38;;;;;;;6.50;82.37;98990.16;2525839;28;20052;-84
2024/01/02 05:57:03;;;;;;;0.30;0.30;;;;;;;6.51;82.36;98993.66;2526187;28;20495;-82
2024/01/02 05:58:17;;;;;;;1.75;0.70;;;;;;;6.50;82.46;98990.16;2525858;28;20050;-85